Boise, ID (83705)

4:12 AM MDT on July 23, 2016 (GMT -0600)
Mesa Vista | | Change Station

Elev 2766 ft 43.60 °N, 116.21 °W | Updated 5 seconds ago

Clear
Clear
61.7 °F
Feels Like 61.7 °F
N
0.0
Wind Variable Wind from NE
Gusts 0.0 mph

Today
High -- | Low -- °F
--% Chance of Precip.
Yesterday
High -- | Low -- °F
Precip. -- in
Pressure 30.04 in
Visibility 10.0 miles
Clouds Clear
Dew Point 45 °F
Humidity 54%
Rainfall 0.00 in
Snow Depth Not available.
6:25 AM 9:16 PM
Waning Gibbous, 86% visible
METAR KBOI 230953Z 29009KT 10SM CLR 17/06 A3011 RMK AO2 SLP170 T01720056
Pressure 30.04 in
Visibility 10.0 miles
Clouds Clear
Dew Point 45 °F
Humidity 54%
Rainfall 0.00 in
Snow Depth Not available.
6:25 AM 9:16 PM
Waning Gibbous, 86% visible
METAR KBOI 230953Z 29009KT 10SM CLR 17/06 A3011 RMK AO2 SLP170 T01720056

10-Day Weather Forecast

Almanac

Astronomy

Jul. 23, 2016 Rise Set
Actual Time
Civil Twilight
Nautical Twilight
Astronomical Twilight
Moon
Length of Visible Light
Length of Day
Tomorrow will be .
, % of the Moon is Illuminated

Today's Extremes

State Highs State Lows

Community

WunderPhotos

Upload Photos

1,926,789 photos uploaded!

WunderBlog® & News

Nearby

Air Quality

  Air Quality AQ Index Pollutant
Not available.

Snow Depth

Station Depth Elevation

Earthquake Activity

City Distance Mag. Time & Date
Minimum magnitude displayed is 2.5.

Coastal Water Temperatures

Place Temperature

Stations

Nearby Weather Stations

Station Location Temp. Windchill Dew Point Humidity Wind Precip. Elev Updated Type
                   

Watches & Warnings

There are currently no watches in effect.